createdAt,value
2022-10-16T00:01:45.338Z,100285.88
2022-10-16T00:04:13.144Z,100288.13
2022-10-16T00:06:40.982Z,100295.75
2022-10-16T00:09:09.190Z,100289.69
2022-10-16T00:11:40.304Z,100289.72
2022-10-16T00:14:13.080Z,100294.47
2022-10-16T00:16:44.044Z,100298.47
2022-10-16T00:19:13.399Z,100295.25
2022-10-16T00:21:40.923Z,100294.09
2022-10-16T00:24:11.656Z,100292.34
2022-10-16T00:26:40.345Z,100295.16
2022-10-16T00:29:08.608Z,100296.13
2022-10-16T00:31:36.501Z,100299.22
2022-10-16T00:34:04.460Z,100301.06
2022-10-16T00:36:33.096Z,100302.63
2022-10-16T00:39:02.171Z,100300.97
2022-10-16T00:41:32.820Z,100304.94
2022-10-16T00:44:22.631Z,100302.63
2022-10-16T00:46:51.107Z,100304.84
2022-10-16T00:49:22.016Z,100305.50
2022-10-16T00:51:55.366Z,100308.94
2022-10-16T00:54:30.207Z,100310.66
2022-10-16T00:57:07.698Z,100322.03
2022-10-16T00:59:40.474Z,100311.53
2022-10-16T01:02:12.671Z,100318.13
2022-10-16T01:04:53.634Z,100330.28
2022-10-16T01:07:31.416Z,100331.41
2022-10-16T01:10:23.279Z,100330.06
2022-10-16T01:13:09.220Z,100327.38
2022-10-16T01:16:07.743Z,100327.59
2022-10-16T01:19:15.328Z,100330.44
2022-10-16T01:21:48.162Z,100335.50
2022-10-16T01:27:21.431Z,100339.38
2022-10-16T01:30:14.903Z,100329.88
2022-10-16T01:33:18.347Z,100334.63
2022-10-16T01:35:54.599Z,100335.25
2022-10-16T01:38:36.019Z,100338.22
2022-10-16T01:41:17.252Z,100337.16
2022-10-16T01:44:03.892Z,100332.78
2022-10-16T01:46:34.152Z,100340.84
2022-10-16T01:49:04.970Z,100337.53
2022-10-16T01:51:33.338Z,100340.63
2022-10-16T01:54:03.226Z,100348.81
2022-10-16T01:56:31.636Z,100349.66
2022-10-16T01:59:12.580Z,100352.69
2022-10-16T02:01:46.978Z,100346.97
2022-10-16T02:04:34.587Z,100357.03
2022-10-16T02:07:05.172Z,100353.97
2022-10-16T02:09:35.908Z,100357.22
2022-10-16T02:12:31.177Z,100351.63
2022-10-16T02:14:58.965Z,100350.00
2022-10-16T02:17:27.643Z,100355.09
2022-10-16T02:19:58.377Z,100351.31
2022-10-16T02:22:39.028Z,100364.84
2022-10-16T02:25:19.091Z,100359.72
2022-10-16T02:28:24.678Z,100363.34
2022-10-16T02:31:03.120Z,100358.47
2022-10-16T02:33:32.247Z,100355.34
2022-10-16T02:36:00.027Z,100365.69
2022-10-16T02:38:28.812Z,100365.88
2022-10-16T02:40:56.731Z,100362.53
2022-10-16T02:43:24.724Z,100368.94
2022-10-16T02:45:52.656Z,100366.66
2022-10-16T02:48:20.105Z,100366.38
2022-10-16T02:50:47.546Z,100375.91
2022-10-16T02:53:15.003Z,100371.38
2022-10-16T02:55:43.033Z,100378.34
2022-10-16T02:58:10.562Z,100387.09
2022-10-16T03:00:38.170Z,100382.69
2022-10-16T03:03:05.565Z,100387.22
2022-10-16T03:05:32.996Z,100390.16
2022-10-16T03:08:01.719Z,100388.28
2022-10-16T03:10:29.432Z,100393.56
2022-10-16T03:12:56.881Z,100397.72
2022-10-16T03:15:24.404Z,100396.38
2022-10-16T03:17:51.861Z,100389.22
2022-10-16T03:20:19.346Z,100396.34
2022-10-16T03:22:46.761Z,100400.53
2022-10-16T03:25:14.302Z,100393.47
2022-10-16T03:27:41.813Z,100400.09
2022-10-16T03:30:10.331Z,100404.41
2022-10-16T03:32:37.832Z,100408.41
2022-10-16T03:35:05.770Z,100401.38
2022-10-16T03:37:33.533Z,100404.72
2022-10-16T03:40:01.022Z,100400.59
2022-10-16T03:42:28.468Z,100407.22
2022-10-16T03:44:55.860Z,100415.81
2022-10-16T03:47:25.014Z,100413.84
2022-10-16T03:49:52.678Z,100415.72
2022-10-16T03:52:20.169Z,100420.97
2022-10-16T03:54:47.694Z,100419.06
2022-10-16T03:57:15.099Z,100420.22
2022-10-16T03:59:42.565Z,100423.19
2022-10-16T04:02:09.943Z,100420.66
2022-10-16T04:04:37.664Z,100417.19
2022-10-16T04:07:05.110Z,100416.66
2022-10-16T04:09:32.679Z,100419.47
2022-10-16T04:12:00.096Z,100418.28
2022-10-16T04:14:27.483Z,100418.97
2022-10-16T04:16:54.902Z,100421.13
2022-10-16T04:19:22.356Z,100417.50
2022-10-16T04:21:49.749Z,100418.69
2022-10-16T04:24:17.177Z,100426.06
2022-10-16T04:26:44.577Z,100424.06
2022-10-16T04:29:12.094Z,100424.81
2022-10-16T04:31:39.651Z,100428.53
2022-10-16T04:34:07.167Z,100422.75
2022-10-16T04:36:34.591Z,100423.25
2022-10-16T04:39:02.000Z,100432.91
2022-10-16T04:41:29.485Z,100431.16
2022-10-16T04:43:56.924Z,100437.91
2022-10-16T04:46:24.412Z,100432.28
2022-10-16T04:48:51.841Z,100436.78
2022-10-16T04:51:19.935Z,100439.91
2022-10-16T04:53:49.842Z,100443.47
2022-10-16T04:56:17.967Z,100441.19
2022-10-16T04:58:45.841Z,100441.09
2022-10-16T05:01:13.358Z,100445.44
2022-10-16T05:03:40.775Z,100443.84
2022-10-16T05:06:08.800Z,100447.47
2022-10-16T05:08:36.347Z,100443.31
2022-10-16T05:11:04.043Z,100446.22
2022-10-16T05:13:31.465Z,100445.53
2022-10-16T05:15:58.899Z,100447.00
2022-10-16T05:18:26.321Z,100454.13
2022-10-16T05:20:53.827Z,100460.16
2022-10-16T05:23:21.252Z,100456.53
2022-10-16T05:25:59.358Z,100464.66
2022-10-16T05:28:29.042Z,100467.38
2022-10-16T05:30:57.039Z,100476.63
2022-10-16T05:33:26.548Z,100473.66
2022-10-16T05:35:53.974Z,100479.16
2022-10-16T05:38:24.150Z,100476.09
2022-10-16T05:40:55.792Z,100478.72
2022-10-16T05:43:23.629Z,100485.09
2022-10-16T05:45:59.740Z,100493.69
2022-10-16T05:48:28.704Z,100498.47
2022-10-16T05:51:09.736Z,100503.66
2022-10-16T05:53:40.051Z,100507.81
2022-10-16T05:56:10.208Z,100509.66
2022-10-16T05:58:41.391Z,100507.34
2022-10-16T06:01:20.222Z,100507.59
2022-10-16T06:03:48.486Z,100514.13
2022-10-16T06:06:21.736Z,100513.94
2022-10-16T06:08:50.859Z,100526.72
2022-10-16T06:11:21.716Z,100533.41
2022-10-16T06:13:54.859Z,100528.22
2022-10-16T06:16:22.496Z,100531.19
2022-10-16T06:18:51.561Z,100541.19
2022-10-16T06:21:23.507Z,100536.28
2022-10-16T06:23:50.958Z,100533.72
2022-10-16T06:26:22.082Z,100535.91
2022-10-16T06:28:49.865Z,100539.84
2022-10-16T06:31:18.466Z,100553.28
2022-10-16T06:33:47.950Z,100549.34
2022-10-16T06:36:18.279Z,100549.47
2022-10-16T06:38:46.536Z,100554.81
2022-10-16T06:41:17.667Z,100551.56
2022-10-16T06:43:46.446Z,100555.56
2022-10-16T06:46:17.002Z,100554.38
2022-10-16T06:48:44.721Z,100559.41
2022-10-16T06:51:21.267Z,100558.41
2022-10-16T06:54:03.980Z,100561.41
2022-10-16T06:56:34.213Z,100573.44
2022-10-16T06:59:03.045Z,100576.34
2022-10-16T07:01:31.216Z,100568.91
2022-10-16T07:03:58.859Z,100567.06
2022-10-16T07:06:28.307Z,100572.81
2022-10-16T07:08:56.047Z,100571.94
2022-10-16T07:11:25.356Z,100575.88
2022-10-16T07:13:56.426Z,100588.31
2022-10-16T07:16:30.710Z,100588.19
2022-10-16T07:19:01.873Z,100578.94
2022-10-16T07:21:36.709Z,100582.34
2022-10-16T07:24:07.146Z,100582.53
2022-10-16T07:26:38.749Z,100580.19
2022-10-16T07:29:17.532Z,100584.25
2022-10-16T07:31:45.441Z,100584.69
2022-10-16T07:34:14.812Z,100578.19
2022-10-16T07:39:14.961Z,100585.34
2022-10-16T07:41:42.412Z,100578.31
2022-10-16T07:44:10.004Z,100574.13
2022-10-16T07:46:37.480Z,100579.59
2022-10-16T07:49:05.494Z,100578.06
2022-10-16T07:51:34.178Z,100577.19
2022-10-16T07:54:02.425Z,100579.19
2022-10-16T07:56:33.115Z,100579.13
2022-10-16T07:59:06.286Z,100580.75
2022-10-16T08:01:34.046Z,100581.38
2022-10-16T08:04:03.118Z,100588.28
2022-10-16T08:06:30.587Z,100588.88
2022-10-16T08:08:58.198Z,100584.75
2022-10-16T08:11:25.974Z,100582.72
2022-10-16T08:13:55.935Z,100579.22
2022-10-16T08:16:24.218Z,100577.88
2022-10-16T08:18:53.341Z,100578.91
2022-10-16T08:21:26.701Z,100580.47
2022-10-16T08:23:58.147Z,100580.56
2022-10-16T08:26:28.606Z,100586.41
2022-10-16T08:28:57.317Z,100571.19
2022-10-16T08:31:25.460Z,100566.81
2022-10-16T08:33:53.696Z,100582.13
2022-10-16T08:36:21.982Z,100576.50
2022-10-16T08:38:51.457Z,100586.13
2022-10-16T08:41:32.900Z,100579.16
2022-10-16T08:44:37.764Z,100580.69
2022-10-16T08:47:24.412Z,100578.88
2022-10-16T08:50:15.466Z,100580.06
2022-10-16T08:52:45.867Z,100578.75
2022-10-16T08:55:34.185Z,100577.97
2022-10-16T08:58:02.305Z,100576.66
2022-10-16T09:00:30.793Z,100588.50
2022-10-16T09:03:26.460Z,100584.28
2022-10-16T09:06:23.968Z,100578.97
2022-10-16T09:09:24.504Z,100576.53
2022-10-16T09:11:54.966Z,100576.81
2022-10-16T09:15:12.786Z,100580.84
2022-10-16T09:18:27.456Z,100588.41
2022-10-16T09:21:25.358Z,100579.03
2022-10-16T09:23:52.971Z,100578.50
2022-10-16T09:28:54.656Z,100572.19
2022-10-16T09:31:24.478Z,100574.72
2022-10-16T09:34:02.017Z,100570.00
2022-10-16T09:36:45.195Z,100568.81
2022-10-16T09:39:13.621Z,100576.13
2022-10-16T09:41:46.650Z,100559.47
2022-10-16T09:44:30.995Z,100558.06
2022-10-16T09:47:12.278Z,100559.06
2022-10-16T09:49:39.747Z,100562.69
2022-10-16T09:52:16.982Z,100557.31
2022-10-16T09:54:58.200Z,100556.03
2022-10-16T09:57:28.120Z,100555.25
2022-10-16T09:59:59.174Z,100549.34
2022-10-16T10:02:37.238Z,100539.66
2022-10-16T10:05:20.389Z,100536.94
2022-10-16T10:07:53.419Z,100536.31
2022-10-16T10:10:30.795Z,100536.69
2022-10-16T10:13:01.068Z,100538.78
2022-10-16T10:15:35.688Z,100525.63
2022-10-16T10:18:04.336Z,100533.13
2022-10-16T10:20:39.204Z,100529.31
2022-10-16T10:23:28.047Z,100523.16
2022-10-16T10:25:57.990Z,100531.19
2022-10-16T10:29:03.084Z,100529.69
2022-10-16T10:32:01.104Z,100525.88
2022-10-16T10:34:54.198Z,100523.69
2022-10-16T10:37:43.791Z,100518.06
2022-10-16T10:40:44.370Z,100515.56
2022-10-16T10:43:20.158Z,100512.13
2022-10-16T10:45:49.945Z,100511.47
2022-10-16T10:48:39.141Z,100500.72
2022-10-16T10:51:14.385Z,100503.09
2022-10-16T10:54:19.192Z,100506.16
2022-10-16T10:57:10.453Z,100505.50
2022-10-16T11:00:21.928Z,100500.25
2022-10-16T11:03:14.564Z,100494.63
2022-10-16T11:06:06.373Z,100492.22
2022-10-16T11:08:50.134Z,100498.81
2022-10-16T11:11:28.328Z,100493.13
2022-10-16T11:14:17.490Z,100501.19
2022-10-16T11:17:18.266Z,100496.00
2022-10-16T11:20:17.427Z,100484.44
2022-10-16T11:23:29.817Z,100494.00
2022-10-16T11:26:03.524Z,100483.84
2022-10-16T11:28:53.104Z,100485.63
2022-10-16T11:31:47.010Z,100486.09
2022-10-16T11:34:31.729Z,100476.56
2022-10-16T11:37:37.964Z,100480.91
2022-10-16T11:40:26.078Z,100470.91
2022-10-16T11:43:07.385Z,100463.78
2022-10-16T11:45:45.949Z,100467.34
2022-10-16T11:48:31.374Z,100472.66
2022-10-16T11:51:16.354Z,100472.72
2022-10-16T11:53:47.540Z,100475.78
2022-10-16T11:56:20.139Z,100477.38
2022-10-16T11:58:57.220Z,100474.25
2022-10-16T12:01:34.442Z,100477.63
2022-10-16T12:04:28.664Z,100475.06
2022-10-16T12:07:10.136Z,100482.44
2022-10-16T12:09:42.274Z,100469.59
2022-10-16T12:13:05.372Z,100475.44
2022-10-16T12:18:26.220Z,100474.69
2022-10-16T12:21:08.568Z,100474.38
2022-10-16T12:23:51.736Z,100481.97
2022-10-16T12:26:35.363Z,100474.97
2022-10-16T12:29:40.140Z,100471.66
2022-10-16T12:32:48.511Z,100464.84
2022-10-16T12:35:33.294Z,100473.34
2022-10-16T12:38:46.225Z,100472.88
2022-10-16T12:41:15.694Z,100476.94
2022-10-16T12:43:46.677Z,100471.34
2022-10-16T12:46:14.310Z,100481.28
2022-10-16T12:48:49.469Z,100479.88
2022-10-16T12:51:32.863Z,100475.69
2022-10-16T12:55:00.141Z,100479.25
2022-10-16T12:57:47.908Z,100486.53
2022-10-16T13:00:42.006Z,100485.56
2022-10-16T13:03:39.591Z,100483.50
2022-10-16T13:06:28.305Z,100488.16
2022-10-16T13:09:10.813Z,100485.44
2022-10-16T13:12:20.852Z,100483.91
2022-10-16T13:15:13.043Z,100485.06
2022-10-16T13:18:06.821Z,100481.09
2022-10-16T13:20:58.944Z,100491.88
2022-10-16T13:24:15.416Z,100488.75
2022-10-16T13:26:59.886Z,100481.78
2022-10-16T13:29:35.481Z,100485.75
2022-10-16T13:32:15.682Z,100486.31
2022-10-16T13:34:49.725Z,100502.00
2022-10-16T13:37:24.586Z,100502.19
2022-10-16T13:39:52.820Z,100498.47
2022-10-16T13:42:29.285Z,100492.22
2022-10-16T13:44:58.208Z,100480.16
2022-10-16T13:47:29.236Z,100485.94
2022-10-16T13:50:26.259Z,100488.63
2022-10-16T13:53:03.844Z,100488.22
2022-10-16T13:55:52.945Z,100488.19
2022-10-16T13:58:21.544Z,100488.13
2022-10-16T14:01:07.155Z,100486.44
2022-10-16T14:03:36.710Z,100477.88
2022-10-16T14:06:32.626Z,100491.09
2022-10-16T14:09:19.160Z,100488.72
2022-10-16T14:12:03.870Z,100497.38
2022-10-16T14:14:53.855Z,100493.69
2022-10-16T14:17:30.126Z,100489.50
2022-10-16T14:20:04.073Z,100495.94
2022-10-16T14:22:39.169Z,100493.22
2022-10-16T14:25:33.235Z,100487.56
2022-10-16T14:28:25.930Z,100499.19
2022-10-16T14:31:26.103Z,100491.09
2022-10-16T14:33:53.608Z,100490.31
2022-10-16T14:36:22.852Z,100490.75
2022-10-16T14:39:14.839Z,100491.66
2022-10-16T14:41:53.687Z,100502.66
2022-10-16T14:44:42.547Z,100498.13
2022-10-16T14:47:31.182Z,100500.53
2022-10-16T14:50:00.904Z,100497.25
2022-10-16T14:52:28.443Z,100501.13
2022-10-16T14:54:57.491Z,100491.94
2022-10-16T14:57:29.606Z,100494.50
2022-10-16T14:59:59.453Z,100490.78
2022-10-16T15:02:40.058Z,100495.28
2022-10-16T15:05:16.021Z,100491.72
2022-10-16T15:07:43.879Z,100488.59
2022-10-16T15:10:12.078Z,100502.22
2022-10-16T15:12:39.845Z,100490.09
2022-10-16T15:15:25.163Z,100490.91
2022-10-16T15:17:57.898Z,100505.66
2022-10-16T15:20:28.796Z,100498.88
2022-10-16T15:22:56.350Z,100500.50
2022-10-16T15:25:48.360Z,100500.81
2022-10-16T15:28:18.130Z,100506.00
2022-10-16T15:30:46.736Z,100503.25
2022-10-16T15:33:20.556Z,100510.13
2022-10-16T15:35:50.127Z,100519.72
2022-10-16T15:38:19.938Z,100517.25
2022-10-16T15:40:51.257Z,100521.38
2022-10-16T15:43:20.113Z,100522.03
2022-10-16T15:46:10.860Z,100529.84
2022-10-16T15:48:38.905Z,100539.03
2022-10-16T15:51:09.153Z,100536.97
2022-10-16T15:53:38.678Z,100534.97
2022-10-16T15:56:27.231Z,100537.31
2022-10-16T15:58:55.318Z,100539.81
2022-10-16T16:01:25.780Z,100546.84
2022-10-16T16:03:57.158Z,100538.91
2022-10-16T16:06:28.252Z,100550.53
2022-10-16T16:08:55.793Z,100548.97
2022-10-16T16:11:25.823Z,100554.16
2022-10-16T16:13:55.673Z,100562.13
2022-10-16T16:16:23.241Z,100566.63
2022-10-16T16:18:55.155Z,100570.50
2022-10-16T16:21:28.089Z,100572.22
2022-10-16T16:23:56.691Z,100576.06
2022-10-16T16:26:28.941Z,100570.63
2022-10-16T16:28:57.756Z,100577.56
2022-10-16T16:31:27.955Z,100586.28
2022-10-16T16:33:57.902Z,100586.69
2022-10-16T16:36:27.469Z,100585.34
2022-10-16T16:38:54.981Z,100590.88
2022-10-16T16:41:27.464Z,100593.31
2022-10-16T16:44:02.862Z,100600.75
2022-10-16T16:46:30.905Z,100602.03
2022-10-16T16:49:00.396Z,100602.38
2022-10-16T16:51:31.381Z,100614.97
2022-10-16T16:53:59.786Z,100620.34
2022-10-16T16:56:37.991Z,100619.59
2022-10-16T16:59:06.006Z,100626.25
2022-10-16T17:01:33.926Z,100626.25
2022-10-16T17:04:03.210Z,100639.25
2022-10-16T17:06:33.910Z,100641.09
2022-10-16T17:09:07.427Z,100640.66
2022-10-16T17:11:36.278Z,100637.09
2022-10-16T17:14:05.185Z,100634.78
2022-10-16T17:16:37.090Z,100632.13
2022-10-16T17:19:11.423Z,100647.53
2022-10-16T17:21:40.469Z,100650.50
2022-10-16T17:24:09.098Z,100649.91
2022-10-16T17:26:38.928Z,100644.63
2022-10-16T17:29:07.499Z,100651.94
2022-10-16T17:31:37.764Z,100651.94
2022-10-16T17:34:08.801Z,100644.78
2022-10-16T17:36:44.207Z,100645.09
2022-10-16T17:39:14.733Z,100648.38
2022-10-16T17:41:48.750Z,100651.78
2022-10-16T17:44:20.279Z,100653.16
2022-10-16T17:46:52.130Z,100657.53
2022-10-16T17:51:57.426Z,100660.78
2022-10-16T17:54:25.656Z,100662.47
2022-10-16T17:56:54.908Z,100669.00
2022-10-16T17:59:24.707Z,100667.44
2022-10-16T18:01:53.738Z,100680.00
2022-10-16T18:04:23.509Z,100677.19
2022-10-16T18:06:56.055Z,100673.31
2022-10-16T18:09:25.120Z,100677.94
2022-10-16T18:12:11.373Z,100685.06
2022-10-16T18:14:38.888Z,100691.34
2022-10-16T18:17:07.312Z,100687.13
2022-10-16T18:19:36.655Z,100691.25
2022-10-16T18:22:05.244Z,100692.56
2022-10-16T18:24:37.535Z,100701.88
2022-10-16T18:27:05.892Z,100708.81
2022-10-16T18:29:33.832Z,100702.72
2022-10-16T18:32:02.475Z,100723.50
2022-10-16T18:34:32.351Z,100731.75
2022-10-16T18:37:02.665Z,100728.50
2022-10-16T18:39:31.540Z,100732.38
2022-10-16T18:42:00.087Z,100733.56
2022-10-16T18:44:31.256Z,100742.19
2022-10-16T18:46:59.269Z,100745.03
2022-10-16T18:49:35.764Z,100746.59
2022-10-16T18:52:05.423Z,100753.16
2022-10-16T18:54:36.129Z,100750.28
2022-10-16T18:57:05.378Z,100749.25
2022-10-16T18:59:34.498Z,100752.56
2022-10-16T19:02:02.037Z,100755.00
2022-10-16T19:04:29.685Z,100754.78
2022-10-16T19:06:57.313Z,100757.31
2022-10-16T19:09:25.760Z,100752.72
2022-10-16T19:11:53.992Z,100760.25
2022-10-16T19:14:22.008Z,100765.81
2022-10-16T19:16:52.463Z,100764.66
2022-10-16T19:19:24.012Z,100774.41
2022-10-16T19:21:56.373Z,100770.00
2022-10-16T19:24:25.571Z,100772.81
2022-10-16T19:26:53.094Z,100773.53
2022-10-16T19:29:20.586Z,100778.31
2022-10-16T19:31:49.452Z,100776.38
2022-10-16T19:34:16.919Z,100777.13
2022-10-16T19:36:44.836Z,100784.06
2022-10-16T19:41:49.626Z,100792.94
2022-10-16T19:44:20.299Z,100797.63
2022-10-16T19:46:49.184Z,100798.75
2022-10-16T19:49:22.598Z,100798.25
2022-10-16T19:51:57.603Z,100805.31
2022-10-16T19:54:25.284Z,100797.00
2022-10-16T19:56:52.964Z,100810.47
2022-10-16T19:59:21.995Z,100805.69
2022-10-16T20:01:49.584Z,100810.53
2022-10-16T20:04:17.667Z,100820.78
2022-10-16T20:06:46.386Z,100818.13
2022-10-16T20:09:14.106Z,100823.06
2022-10-16T20:11:41.986Z,100823.22
2022-10-16T20:14:09.893Z,100831.63
2022-10-16T20:16:40.306Z,100829.94
2022-10-16T20:19:08.034Z,100827.53
2022-10-16T20:21:36.460Z,100828.38
2022-10-16T20:24:06.386Z,100832.34
2022-10-16T20:26:34.454Z,100834.16
2022-10-16T20:29:02.514Z,100831.41
2022-10-16T20:31:33.485Z,100834.03
2022-10-16T20:34:06.407Z,100842.34
2022-10-16T20:36:35.711Z,100844.53
2022-10-16T20:39:05.492Z,100853.31
2022-10-16T20:41:33.984Z,100849.84
2022-10-16T20:44:06.582Z,100847.56
2022-10-16T20:46:34.793Z,100847.56
2022-10-16T20:49:10.886Z,100852.41
2022-10-16T20:51:44.099Z,100852.75
2022-10-16T20:54:12.487Z,100852.81
2022-10-16T20:56:40.220Z,100853.66
2022-10-16T20:59:07.724Z,100862.53
2022-10-16T21:01:36.802Z,100869.19
2022-10-16T21:04:08.470Z,100859.56
2022-10-16T21:06:39.011Z,100854.25
2022-10-16T21:09:07.971Z,100858.66
2022-10-16T21:11:37.413Z,100859.25
2022-10-16T21:14:07.462Z,100863.94
2022-10-16T21:16:35.624Z,100867.00
2022-10-16T21:19:04.224Z,100867.06
2022-10-16T21:21:35.778Z,100861.63
2022-10-16T21:24:04.413Z,100863.66
2022-10-16T21:26:32.310Z,100872.03
2022-10-16T21:29:07.300Z,100874.22
2022-10-16T21:31:35.304Z,100881.53
2022-10-16T21:34:04.137Z,100876.34
2022-10-16T21:36:35.564Z,100880.84
2022-10-16T21:39:15.728Z,100889.84
2022-10-16T21:41:46.343Z,100889.91
2022-10-16T21:44:14.346Z,100888.19
2022-10-16T21:46:44.192Z,100884.78
2022-10-16T21:49:19.241Z,100888.72
2022-10-16T21:51:50.643Z,100883.63
2022-10-16T21:54:22.054Z,100887.50
2022-10-16T21:56:49.625Z,100885.41
2022-10-16T21:59:17.797Z,100891.19
2022-10-16T22:01:45.584Z,100893.75
2022-10-16T22:04:15.977Z,100893.50
2022-10-16T22:06:45.773Z,100892.78
2022-10-16T22:09:14.709Z,100896.66
2022-10-16T22:11:45.183Z,100904.28
2022-10-16T22:14:17.769Z,100908.31
2022-10-16T22:16:46.562Z,100900.50
2022-10-16T22:19:17.240Z,100902.06
2022-10-16T22:21:48.173Z,100903.63
2022-10-16T22:24:16.883Z,100910.19
2022-10-16T22:26:44.712Z,100909.13
2022-10-16T22:29:14.569Z,100909.75
2022-10-16T22:31:43.162Z,100910.84
2022-10-16T22:34:13.884Z,100916.56
2022-10-16T22:36:41.650Z,100918.47
2022-10-16T22:39:09.905Z,100922.88
2022-10-16T22:41:37.799Z,100923.63
2022-10-16T22:44:05.478Z,100920.78
2022-10-16T22:46:32.990Z,100923.19
2022-10-16T22:49:00.542Z,100922.09
2022-10-16T22:51:28.672Z,100924.97
2022-10-16T22:53:59.145Z,100927.06
2022-10-16T22:56:26.851Z,100929.94
2022-10-16T22:58:54.520Z,100928.94
2022-10-16T23:01:30.195Z,100925.59
2022-10-16T23:03:58.191Z,100925.09
2022-10-16T23:06:25.715Z,100926.97
2022-10-16T23:08:55.310Z,100923.56
2022-10-16T23:11:27.324Z,100929.06
2022-10-16T23:13:55.315Z,100930.91
2022-10-16T23:16:24.045Z,100934.84
2022-10-16T23:18:52.420Z,100945.81
2022-10-16T23:21:24.307Z,100931.22
2022-10-16T23:23:53.535Z,100938.25
2022-10-16T23:26:25.722Z,100945.34
2022-10-16T23:28:53.579Z,100939.63
2022-10-16T23:31:21.449Z,100950.09
2022-10-16T23:33:49.323Z,100948.78
2022-10-16T23:36:20.626Z,100950.66
2022-10-16T23:38:49.918Z,100950.94
2022-10-16T23:41:19.321Z,100949.94
2022-10-16T23:43:47.179Z,100962.69
2022-10-16T23:46:15.796Z,100955.56
2022-10-16T23:48:44.260Z,100963.66
2022-10-16T23:51:12.888Z,100964.16
2022-10-16T23:53:40.822Z,100960.41
2022-10-16T23:56:08.888Z,100957.31
2022-10-16T23:58:36.488Z,100965.38
